sensor_id;sensor_type;location;lat;lon;timestamp;P1;durP1;ratioP1;P2;durP2;ratioP2
21727;SDS011;11026;50.560;17.852;2024-03-22T00:02:14;24.50;;;18.88;;
21727;SDS011;11026;50.560;17.852;2024-03-22T00:04:41;24.90;;;19.58;;
21727;SDS011;11026;50.560;17.852;2024-03-22T00:07:06;22.63;;;18.17;;
21727;SDS011;11026;50.560;17.852;2024-03-22T00:09:32;24.75;;;19.40;;
21727;SDS011;11026;50.560;17.852;2024-03-22T00:12:01;23.75;;;19.23;;
21727;SDS011;11026;50.560;17.852;2024-03-22T00:14:27;26.83;;;20.23;;
21727;SDS011;11026;50.560;17.852;2024-03-22T00:16:54;25.95;;;20.17;;
21727;SDS011;11026;50.560;17.852;2024-03-22T00:19:20;26.88;;;20.50;;
21727;SDS011;11026;50.560;17.852;2024-03-22T00:21:47;23.90;;;19.35;;
21727;SDS011;11026;50.560;17.852;2024-03-22T00:24:13;24.73;;;19.80;;
21727;SDS011;11026;50.560;17.852;2024-03-22T00:29:08;25.98;;;20.52;;
21727;SDS011;11026;50.560;17.852;2024-03-22T00:31:35;25.65;;;20.38;;
21727;SDS011;11026;50.560;17.852;2024-03-22T00:34:03;26.10;;;20.30;;
21727;SDS011;11026;50.560;17.852;2024-03-22T00:36:30;30.65;;;21.45;;
21727;SDS011;11026;50.560;17.852;2024-03-22T00:38:57;28.88;;;20.73;;
21727;SDS011;11026;50.560;17.852;2024-03-22T00:41:24;26.67;;;20.90;;
21727;SDS011;11026;50.560;17.852;2024-03-22T00:43:50;26.77;;;21.00;;
21727;SDS011;11026;50.560;17.852;2024-03-22T00:46:17;26.45;;;20.88;;
21727;SDS011;11026;50.560;17.852;2024-03-22T00:48:43;27.13;;;20.45;;
21727;SDS011;11026;50.560;17.852;2024-03-22T00:51:10;26.75;;;20.92;;
21727;SDS011;11026;50.560;17.852;2024-03-22T00:53:37;26.35;;;20.92;;
21727;SDS011;11026;50.560;17.852;2024-03-22T00:56:03;28.98;;;22.25;;
21727;SDS011;11026;50.560;17.852;2024-03-22T00:58:29;27.33;;;21.25;;
21727;SDS011;11026;50.560;17.852;2024-03-22T01:00:56;31.33;;;21.30;;
21727;SDS011;11026;50.560;17.852;2024-03-22T01:03:22;27.73;;;20.73;;
21727;SDS011;11026;50.560;17.852;2024-03-22T01:05:49;26.20;;;21.23;;
21727;SDS011;11026;50.560;17.852;2024-03-22T01:08:15;26.83;;;21.77;;
21727;SDS011;11026;50.560;17.852;2024-03-22T01:10:42;27.92;;;21.52;;
21727;SDS011;11026;50.560;17.852;2024-03-22T01:13:10;29.20;;;21.75;;
21727;SDS011;11026;50.560;17.852;2024-03-22T01:15:38;28.30;;;21.08;;
21727;SDS011;11026;50.560;17.852;2024-03-22T01:18:04;28.05;;;22.50;;
21727;SDS011;11026;50.560;17.852;2024-03-22T01:20:30;27.65;;;21.70;;
21727;SDS011;11026;50.560;17.852;2024-03-22T01:22:56;26.92;;;21.13;;
21727;SDS011;11026;50.560;17.852;2024-03-22T01:25:27;28.40;;;21.25;;
21727;SDS011;11026;50.560;17.852;2024-03-22T01:27:55;29.05;;;21.92;;
21727;SDS011;11026;50.560;17.852;2024-03-22T01:30:22;26.65;;;20.83;;
21727;SDS011;11026;50.560;17.852;2024-03-22T01:32:48;28.88;;;21.50;;
21727;SDS011;11026;50.560;17.852;2024-03-22T01:35:15;30.35;;;21.33;;
21727;SDS011;11026;50.560;17.852;2024-03-22T01:37:43;29.40;;;22.48;;
21727;SDS011;11026;50.560;17.852;2024-03-22T01:40:11;30.75;;;22.15;;
21727;SDS011;11026;50.560;17.852;2024-03-22T01:42:37;28.75;;;21.67;;
21727;SDS011;11026;50.560;17.852;2024-03-22T01:45:03;30.45;;;21.98;;
21727;SDS011;11026;50.560;17.852;2024-03-22T01:47:30;29.55;;;22.45;;
21727;SDS011;11026;50.560;17.852;2024-03-22T01:49:57;29.70;;;21.70;;
21727;SDS011;11026;50.560;17.852;2024-03-22T01:52:25;27.70;;;20.55;;
21727;SDS011;11026;50.560;17.852;2024-03-22T01:54:51;27.98;;;20.15;;
21727;SDS011;11026;50.560;17.852;2024-03-22T01:57:18;24.75;;;18.00;;
21727;SDS011;11026;50.560;17.852;2024-03-22T01:59:44;21.20;;;14.95;;
21727;SDS011;11026;50.560;17.852;2024-03-22T02:02:15;18.02;;;13.50;;
21727;SDS011;11026;50.560;17.852;2024-03-22T02:04:42;17.58;;;13.48;;
21727;SDS011;11026;50.560;17.852;2024-03-22T02:07:08;20.95;;;13.50;;
21727;SDS011;11026;50.560;17.852;2024-03-22T02:09:35;15.80;;;11.45;;
21727;SDS011;11026;50.560;17.852;2024-03-22T02:14:36;14.15;;;10.88;;
21727;SDS011;11026;50.560;17.852;2024-03-22T02:17:01;14.32;;;10.52;;
21727;SDS011;11026;50.560;17.852;2024-03-22T02:19:27;13.93;;;10.18;;
21727;SDS011;11026;50.560;17.852;2024-03-22T02:21:55;12.50;;;9.40;;
21727;SDS011;11026;50.560;17.852;2024-03-22T02:24:21;12.35;;;9.55;;
21727;SDS011;11026;50.560;17.852;2024-03-22T02:26:47;12.75;;;9.40;;
21727;SDS011;11026;50.560;17.852;2024-03-22T02:29:13;12.57;;;9.98;;
21727;SDS011;11026;50.560;17.852;2024-03-22T02:31:41;12.25;;;9.82;;
21727;SDS011;11026;50.560;17.852;2024-03-22T02:36:35;12.85;;;9.13;;
21727;SDS011;11026;50.560;17.852;2024-03-22T02:39:03;12.50;;;9.18;;
21727;SDS011;11026;50.560;17.852;2024-03-22T02:41:30;12.05;;;8.93;;
21727;SDS011;11026;50.560;17.852;2024-03-22T02:43:56;11.43;;;8.85;;
21727;SDS011;11026;50.560;17.852;2024-03-22T02:48:51;10.73;;;9.40;;
21727;SDS011;11026;50.560;17.852;2024-03-22T02:51:18;9.57;;;8.13;;
21727;SDS011;11026;50.560;17.852;2024-03-22T02:53:44;15.32;;;8.95;;
21727;SDS011;11026;50.560;17.852;2024-03-22T02:56:10;12.40;;;8.85;;
21727;SDS011;11026;50.560;17.852;2024-03-22T02:58:37;12.70;;;9.32;;
21727;SDS011;11026;50.560;17.852;2024-03-22T03:01:04;10.85;;;8.80;;
21727;SDS011;11026;50.560;17.852;2024-03-22T03:03:31;10.52;;;8.30;;
21727;SDS011;11026;50.560;17.852;2024-03-22T03:05:58;10.32;;;8.18;;
21727;SDS011;11026;50.560;17.852;2024-03-22T03:08:26;10.55;;;8.35;;
21727;SDS011;11026;50.560;17.852;2024-03-22T03:10:52;9.35;;;7.82;;
21727;SDS011;11026;50.560;17.852;2024-03-22T03:13:18;8.90;;;7.95;;
21727;SDS011;11026;50.560;17.852;2024-03-22T03:15:44;10.32;;;8.40;;
21727;SDS011;11026;50.560;17.852;2024-03-22T03:20:39;10.43;;;8.45;;
21727;SDS011;11026;50.560;17.852;2024-03-22T03:23:06;10.18;;;7.68;;
21727;SDS011;11026;50.560;17.852;2024-03-22T03:25:34;8.57;;;7.47;;
21727;SDS011;11026;50.560;17.852;2024-03-22T03:28:00;9.55;;;7.68;;
21727;SDS011;11026;50.560;17.852;2024-03-22T03:30:26;11.13;;;7.95;;
21727;SDS011;11026;50.560;17.852;2024-03-22T03:35:22;10.00;;;8.20;;
21727;SDS011;11026;50.560;17.852;2024-03-22T03:37:48;10.30;;;8.20;;
21727;SDS011;11026;50.560;17.852;2024-03-22T03:45:19;10.18;;;8.15;;
21727;SDS011;11026;50.560;17.852;2024-03-22T03:47:46;9.40;;;8.32;;
21727;SDS011;11026;50.560;17.852;2024-03-22T03:50:13;9.15;;;7.93;;
21727;SDS011;11026;50.560;17.852;2024-03-22T03:52:39;9.63;;;8.05;;
21727;SDS011;11026;50.560;17.852;2024-03-22T03:55:05;9.82;;;8.02;;
21727;SDS011;11026;50.560;17.852;2024-03-22T03:57:32;11.35;;;8.70;;
21727;SDS011;11026;50.560;17.852;2024-03-22T03:59:58;10.10;;;8.65;;
21727;SDS011;11026;50.560;17.852;2024-03-22T04:02:26;11.20;;;8.32;;
21727;SDS011;11026;50.560;17.852;2024-03-22T04:04:53;10.43;;;8.10;;
21727;SDS011;11026;50.560;17.852;2024-03-22T04:07:22;13.05;;;9.60;;
21727;SDS011;11026;50.560;17.852;2024-03-22T04:09:48;14.02;;;9.82;;
21727;SDS011;11026;50.560;17.852;2024-03-22T04:14:44;11.48;;;9.20;;
21727;SDS011;11026;50.560;17.852;2024-03-22T04:17:11;12.80;;;9.82;;
21727;SDS011;11026;50.560;17.852;2024-03-22T04:19:38;11.65;;;10.00;;
21727;SDS011;11026;50.560;17.852;2024-03-22T04:22:04;13.05;;;10.63;;
21727;SDS011;11026;50.560;17.852;2024-03-22T04:24:31;12.95;;;10.15;;
21727;SDS011;11026;50.560;17.852;2024-03-22T04:26:59;13.07;;;10.55;;
21727;SDS011;11026;50.560;17.852;2024-03-22T04:29:25;13.90;;;10.82;;
21727;SDS011;11026;50.560;17.852;2024-03-22T04:34:25;13.27;;;10.43;;
21727;SDS011;11026;50.560;17.852;2024-03-22T04:36:53;15.48;;;11.23;;
21727;SDS011;11026;50.560;17.852;2024-03-22T04:41:51;14.77;;;12.07;;
21727;SDS011;11026;50.560;17.852;2024-03-22T04:44:17;14.73;;;11.88;;
21727;SDS011;11026;50.560;17.852;2024-03-22T04:46:43;14.55;;;11.48;;
21727;SDS011;11026;50.560;17.852;2024-03-22T04:49:09;15.98;;;12.05;;
21727;SDS011;11026;50.560;17.852;2024-03-22T04:51:36;14.73;;;11.52;;
21727;SDS011;11026;50.560;17.852;2024-03-22T04:54:03;13.50;;;11.10;;
21727;SDS011;11026;50.560;17.852;2024-03-22T04:56:30;13.82;;;10.95;;
21727;SDS011;11026;50.560;17.852;2024-03-22T04:58:56;16.00;;;11.70;;
21727;SDS011;11026;50.560;17.852;2024-03-22T05:01:22;15.45;;;11.95;;
21727;SDS011;11026;50.560;17.852;2024-03-22T05:03:49;14.70;;;11.27;;
21727;SDS011;11026;50.560;17.852;2024-03-22T05:06:15;14.38;;;11.77;;
21727;SDS011;11026;50.560;17.852;2024-03-22T05:08:42;13.50;;;10.88;;
21727;SDS011;11026;50.560;17.852;2024-03-22T05:11:08;16.25;;;11.50;;
21727;SDS011;11026;50.560;17.852;2024-03-22T05:13:34;17.05;;;11.77;;
21727;SDS011;11026;50.560;17.852;2024-03-22T05:16:00;14.85;;;11.50;;
21727;SDS011;11026;50.560;17.852;2024-03-22T05:18:27;15.30;;;11.90;;
21727;SDS011;11026;50.560;17.852;2024-03-22T05:20:54;14.57;;;11.48;;
21727;SDS011;11026;50.560;17.852;2024-03-22T05:23:22;16.65;;;11.57;;
21727;SDS011;11026;50.560;17.852;2024-03-22T05:25:48;16.13;;;11.85;;
21727;SDS011;11026;50.560;17.852;2024-03-22T05:28:15;16.40;;;11.90;;
21727;SDS011;11026;50.560;17.852;2024-03-22T05:30:41;17.55;;;11.88;;
21727;SDS011;11026;50.560;17.852;2024-03-22T05:33:08;17.52;;;12.10;;
21727;SDS011;11026;50.560;17.852;2024-03-22T05:35:36;16.42;;;11.68;;
21727;SDS011;11026;50.560;17.852;2024-03-22T05:38:02;16.92;;;12.20;;
21727;SDS011;11026;50.560;17.852;2024-03-22T05:40:30;16.27;;;12.25;;
21727;SDS011;11026;50.560;17.852;2024-03-22T05:42:58;18.15;;;13.48;;
21727;SDS011;11026;50.560;17.852;2024-03-22T05:45:25;17.73;;;12.65;;
21727;SDS011;11026;50.560;17.852;2024-03-22T05:50:20;18.15;;;13.05;;
21727;SDS011;11026;50.560;17.852;2024-03-22T05:52:48;18.05;;;13.43;;
21727;SDS011;11026;50.560;17.852;2024-03-22T05:55:15;20.67;;;13.85;;
21727;SDS011;11026;50.560;17.852;2024-03-22T05:57:42;18.20;;;13.55;;
21727;SDS011;11026;50.560;17.852;2024-03-22T06:00:08;17.95;;;12.90;;
21727;SDS011;11026;50.560;17.852;2024-03-22T06:02:37;19.52;;;13.10;;
21727;SDS011;11026;50.560;17.852;2024-03-22T06:05:04;20.25;;;14.40;;
21727;SDS011;11026;50.560;17.852;2024-03-22T06:07:30;18.70;;;13.60;;
21727;SDS011;11026;50.560;17.852;2024-03-22T06:10:05;18.58;;;12.93;;
21727;SDS011;11026;50.560;17.852;2024-03-22T06:12:33;19.73;;;14.35;;
21727;SDS011;11026;50.560;17.852;2024-03-22T06:14:59;20.52;;;14.07;;
21727;SDS011;11026;50.560;17.852;2024-03-22T06:17:25;21.15;;;14.75;;
21727;SDS011;11026;50.560;17.852;2024-03-22T06:19:50;23.63;;;14.80;;
21727;SDS011;11026;50.560;17.852;2024-03-22T06:22:16;20.73;;;14.98;;
21727;SDS011;11026;50.560;17.852;2024-03-22T06:29:40;21.05;;;14.75;;
21727;SDS011;11026;50.560;17.852;2024-03-22T06:32:06;21.83;;;15.13;;
21727;SDS011;11026;50.560;17.852;2024-03-22T06:34:32;21.08;;;14.68;;
21727;SDS011;11026;50.560;17.852;2024-03-22T06:36:59;21.50;;;15.05;;
21727;SDS011;11026;50.560;17.852;2024-03-22T06:39:25;22.45;;;15.18;;
21727;SDS011;11026;50.560;17.852;2024-03-22T06:41:51;22.83;;;15.02;;
21727;SDS011;11026;50.560;17.852;2024-03-22T06:44:17;18.77;;;14.00;;
21727;SDS011;11026;50.560;17.852;2024-03-22T06:46:43;20.13;;;14.52;;
21727;SDS011;11026;50.560;17.852;2024-03-22T06:49:09;20.35;;;14.48;;
21727;SDS011;11026;50.560;17.852;2024-03-22T06:59:04;22.65;;;14.55;;
21727;SDS011;11026;50.560;17.852;2024-03-22T07:01:31;23.73;;;15.52;;
21727;SDS011;11026;50.560;17.852;2024-03-22T07:03:58;19.38;;;14.35;;
21727;SDS011;11026;50.560;17.852;2024-03-22T07:06:26;25.20;;;15.32;;
21727;SDS011;11026;50.560;17.852;2024-03-22T07:08:51;20.52;;;14.93;;
21727;SDS011;11026;50.560;17.852;2024-03-22T07:11:17;21.20;;;14.65;;
21727;SDS011;11026;50.560;17.852;2024-03-22T07:13:45;20.23;;;14.55;;
21727;SDS011;11026;50.560;17.852;2024-03-22T07:16:11;19.08;;;14.65;;
21727;SDS011;11026;50.560;17.852;2024-03-22T07:18:38;19.98;;;14.73;;
21727;SDS011;11026;50.560;17.852;2024-03-22T07:21:05;21.45;;;13.75;;
21727;SDS011;11026;50.560;17.852;2024-03-22T07:23:31;22.27;;;13.63;;
21727;SDS011;11026;50.560;17.852;2024-03-22T07:25:57;20.50;;;14.02;;
21727;SDS011;11026;50.560;17.852;2024-03-22T07:28:25;19.90;;;14.00;;
21727;SDS011;11026;50.560;17.852;2024-03-22T07:30:53;20.73;;;12.98;;
21727;SDS011;11026;50.560;17.852;2024-03-22T07:33:22;19.13;;;13.50;;
21727;SDS011;11026;50.560;17.852;2024-03-22T07:35:49;19.90;;;13.23;;
21727;SDS011;11026;50.560;17.852;2024-03-22T07:38:17;19.73;;;13.43;;
21727;SDS011;11026;50.560;17.852;2024-03-22T07:40:43;18.23;;;12.48;;
21727;SDS011;11026;50.560;17.852;2024-03-22T07:43:09;16.85;;;12.27;;
21727;SDS011;11026;50.560;17.852;2024-03-22T07:45:35;17.58;;;12.68;;
21727;SDS011;11026;50.560;17.852;2024-03-22T07:48:04;17.42;;;12.10;;
21727;SDS011;11026;50.560;17.852;2024-03-22T07:50:30;18.15;;;12.82;;
21727;SDS011;11026;50.560;17.852;2024-03-22T07:52:56;16.15;;;11.90;;
21727;SDS011;11026;50.560;17.852;2024-03-22T07:55:22;18.58;;;12.68;;
21727;SDS011;11026;50.560;17.852;2024-03-22T08:00:17;19.02;;;12.40;;
21727;SDS011;11026;50.560;17.852;2024-03-22T08:02:43;17.58;;;12.40;;
21727;SDS011;11026;50.560;17.852;2024-03-22T08:05:10;18.73;;;13.07;;
21727;SDS011;11026;50.560;17.852;2024-03-22T08:07:38;16.80;;;12.00;;
21727;SDS011;11026;50.560;17.852;2024-03-22T08:10:06;19.02;;;12.05;;
21727;SDS011;11026;50.560;17.852;2024-03-22T08:12:33;16.33;;;11.90;;
21727;SDS011;11026;50.560;17.852;2024-03-22T08:14:59;16.33;;;11.23;;
21727;SDS011;11026;50.560;17.852;2024-03-22T08:17:25;15.30;;;11.82;;
21727;SDS011;11026;50.560;17.852;2024-03-22T08:22:23;15.63;;;11.35;;
21727;SDS011;11026;50.560;17.852;2024-03-22T08:27:18;16.25;;;10.75;;
21727;SDS011;11026;50.560;17.852;2024-03-22T08:29:44;16.63;;;11.27;;
21727;SDS011;11026;50.560;17.852;2024-03-22T08:32:10;18.17;;;10.35;;
21727;SDS011;11026;50.560;17.852;2024-03-22T08:34:36;15.90;;;10.88;;
21727;SDS011;11026;50.560;17.852;2024-03-22T08:37:02;14.50;;;10.77;;
21727;SDS011;11026;50.560;17.852;2024-03-22T08:39:29;15.85;;;10.57;;
21727;SDS011;11026;50.560;17.852;2024-03-22T08:41:56;14.25;;;9.90;;
21727;SDS011;11026;50.560;17.852;2024-03-22T08:44:22;12.65;;;9.60;;
21727;SDS011;11026;50.560;17.852;2024-03-22T08:49:17;16.10;;;11.50;;
21727;SDS011;11026;50.560;17.852;2024-03-22T08:51:44;17.02;;;11.52;;
21727;SDS011;11026;50.560;17.852;2024-03-22T08:54:11;16.00;;;11.93;;
21727;SDS011;11026;50.560;17.852;2024-03-22T08:56:37;19.08;;;12.60;;
21727;SDS011;11026;50.560;17.852;2024-03-22T08:59:03;16.63;;;11.75;;
21727;SDS011;11026;50.560;17.852;2024-03-22T09:01:30;15.82;;;11.20;;
21727;SDS011;11026;50.560;17.852;2024-03-22T09:03:56;19.10;;;11.90;;
21727;SDS011;11026;50.560;17.852;2024-03-22T09:06:22;16.83;;;12.30;;
21727;SDS011;11026;50.560;17.852;2024-03-22T09:08:49;15.63;;;11.02;;
21727;SDS011;11026;50.560;17.852;2024-03-22T09:11:15;15.00;;;11.65;;
21727;SDS011;11026;50.560;17.852;2024-03-22T09:13:41;15.30;;;10.75;;
21727;SDS011;11026;50.560;17.852;2024-03-22T09:16:07;17.33;;;11.90;;
21727;SDS011;11026;50.560;17.852;2024-03-22T09:18:35;15.52;;;11.77;;
21727;SDS011;11026;50.560;17.852;2024-03-22T09:21:01;16.05;;;11.02;;
21727;SDS011;11026;50.560;17.852;2024-03-22T09:25:58;14.88;;;10.77;;
21727;SDS011;11026;50.560;17.852;2024-03-22T09:28:24;16.58;;;11.25;;
21727;SDS011;11026;50.560;17.852;2024-03-22T09:30:50;15.98;;;11.48;;
21727;SDS011;11026;50.560;17.852;2024-03-22T09:33:16;15.70;;;11.10;;
21727;SDS011;11026;50.560;17.852;2024-03-22T09:35:43;13.13;;;9.90;;
21727;SDS011;11026;50.560;17.852;2024-03-22T09:38:09;13.70;;;9.98;;
21727;SDS011;11026;50.560;17.852;2024-03-22T09:40:38;13.38;;;10.13;;
21727;SDS011;11026;50.560;17.852;2024-03-22T09:45:35;12.90;;;9.98;;
21727;SDS011;11026;50.560;17.852;2024-03-22T09:48:01;12.57;;;10.00;;
21727;SDS011;11026;50.560;17.852;2024-03-22T09:50:30;11.50;;;9.48;;
21727;SDS011;11026;50.560;17.852;2024-03-22T09:52:57;12.32;;;9.25;;
21727;SDS011;11026;50.560;17.852;2024-03-22T09:55:23;11.20;;;8.63;;
21727;SDS011;11026;50.560;17.852;2024-03-22T09:57:52;10.48;;;8.10;;
21727;SDS011;11026;50.560;17.852;2024-03-22T10:00:21;11.00;;;8.48;;
21727;SDS011;11026;50.560;17.852;2024-03-22T10:02:51;12.70;;;8.55;;
21727;SDS011;11026;50.560;17.852;2024-03-22T10:05:18;10.57;;;7.57;;
21727;SDS011;11026;50.560;17.852;2024-03-22T10:07:44;11.32;;;8.20;;
21727;SDS011;11026;50.560;17.852;2024-03-22T10:10:11;13.02;;;8.80;;
21727;SDS011;11026;50.560;17.852;2024-03-22T10:12:38;12.85;;;9.75;;
21727;SDS011;11026;50.560;17.852;2024-03-22T10:15:05;15.52;;;11.35;;
21727;SDS011;11026;50.560;17.852;2024-03-22T10:17:34;9.98;;;8.18;;
21727;SDS011;11026;50.560;17.852;2024-03-22T10:20:00;9.85;;;8.32;;
21727;SDS011;11026;50.560;17.852;2024-03-22T10:22:26;12.05;;;8.10;;
21727;SDS011;11026;50.560;17.852;2024-03-22T10:24:53;10.10;;;7.60;;
21727;SDS011;11026;50.560;17.852;2024-03-22T10:29:48;9.40;;;7.68;;
21727;SDS011;11026;50.560;17.852;2024-03-22T10:32:15;9.88;;;8.30;;
21727;SDS011;11026;50.560;17.852;2024-03-22T10:34:43;10.93;;;8.32;;
21727;SDS011;11026;50.560;17.852;2024-03-22T10:37:12;10.75;;;7.93;;
21727;SDS011;11026;50.560;17.852;2024-03-22T10:39:41;11.52;;;8.57;;
21727;SDS011;11026;50.560;17.852;2024-03-22T10:42:10;11.73;;;9.00;;
21727;SDS011;11026;50.560;17.852;2024-03-22T10:44:38;13.05;;;8.23;;
21727;SDS011;11026;50.560;17.852;2024-03-22T10:47:05;12.43;;;7.90;;
21727;SDS011;11026;50.560;17.852;2024-03-22T10:49:36;10.38;;;8.20;;
21727;SDS011;11026;50.560;17.852;2024-03-22T10:52:03;11.38;;;8.23;;
21727;SDS011;11026;50.560;17.852;2024-03-22T10:54:33;11.38;;;8.15;;
21727;SDS011;11026;50.560;17.852;2024-03-22T10:57:03;11.63;;;8.63;;
21727;SDS011;11026;50.560;17.852;2024-03-22T10:59:35;10.05;;;8.25;;
21727;SDS011;11026;50.560;17.852;2024-03-22T11:02:04;10.60;;;7.85;;
21727;SDS011;11026;50.560;17.852;2024-03-22T11:04:32;11.60;;;8.45;;
21727;SDS011;11026;50.560;17.852;2024-03-22T11:06:59;10.90;;;7.55;;
21727;SDS011;11026;50.560;17.852;2024-03-22T11:12:00;10.25;;;8.15;;
21727;SDS011;11026;50.560;17.852;2024-03-22T11:14:26;11.95;;;8.57;;
21727;SDS011;11026;50.560;17.852;2024-03-22T11:16:52;13.60;;;9.13;;
21727;SDS011;11026;50.560;17.852;2024-03-22T11:19:18;12.77;;;9.35;;
21727;SDS011;11026;50.560;17.852;2024-03-22T11:21:44;11.45;;;7.82;;
21727;SDS011;11026;50.560;17.852;2024-03-22T11:24:12;11.57;;;8.50;;
21727;SDS011;11026;50.560;17.852;2024-03-22T11:26:40;10.90;;;8.95;;
21727;SDS011;11026;50.560;17.852;2024-03-22T11:29:06;9.85;;;8.82;;
21727;SDS011;11026;50.560;17.852;2024-03-22T11:31:34;10.38;;;8.52;;
21727;SDS011;11026;50.560;17.852;2024-03-22T11:34:00;11.07;;;8.07;;
21727;SDS011;11026;50.560;17.852;2024-03-22T11:36:30;9.13;;;7.85;;
21727;SDS011;11026;50.560;17.852;2024-03-22T11:38:56;10.82;;;7.93;;
21727;SDS011;11026;50.560;17.852;2024-03-22T11:41:24;9.93;;;8.35;;
21727;SDS011;11026;50.560;17.852;2024-03-22T11:43:53;12.18;;;9.02;;
21727;SDS011;11026;50.560;17.852;2024-03-22T11:46:21;9.40;;;7.03;;
21727;SDS011;11026;50.560;17.852;2024-03-22T11:48:52;9.88;;;6.85;;
21727;SDS011;11026;50.560;17.852;2024-03-22T11:51:19;8.23;;;7.00;;
21727;SDS011;11026;50.560;17.852;2024-03-22T11:53:54;7.50;;;6.22;;
21727;SDS011;11026;50.560;17.852;2024-03-22T11:56:22;6.75;;;5.65;;
21727;SDS011;11026;50.560;17.852;2024-03-22T11:58:49;7.05;;;5.95;;
21727;SDS011;11026;50.560;17.852;2024-03-22T12:01:24;7.63;;;6.03;;
21727;SDS011;11026;50.560;17.852;2024-03-22T12:03:50;8.38;;;5.60;;
21727;SDS011;11026;50.560;17.852;2024-03-22T12:06:16;8.52;;;6.47;;
21727;SDS011;11026;50.560;17.852;2024-03-22T12:08:43;9.30;;;6.40;;
21727;SDS011;11026;50.560;17.852;2024-03-22T12:11:10;7.18;;;6.00;;
21727;SDS011;11026;50.560;17.852;2024-03-22T12:13:37;7.65;;;5.82;;
21727;SDS011;11026;50.560;17.852;2024-03-22T12:16:06;8.38;;;5.85;;
21727;SDS011;11026;50.560;17.852;2024-03-22T12:18:33;6.72;;;5.45;;
21727;SDS011;11026;50.560;17.852;2024-03-22T12:21:00;7.13;;;4.95;;
21727;SDS011;11026;50.560;17.852;2024-03-22T12:23:26;6.68;;;5.47;;
21727;SDS011;11026;50.560;17.852;2024-03-22T12:25:53;8.25;;;5.28;;
21727;SDS011;11026;50.560;17.852;2024-03-22T12:28:22;6.72;;;5.40;;
21727;SDS011;11026;50.560;17.852;2024-03-22T12:30:49;5.35;;;4.78;;
21727;SDS011;11026;50.560;17.852;2024-03-22T12:33:17;5.95;;;4.80;;
21727;SDS011;11026;50.560;17.852;2024-03-22T12:38:13;7.03;;;5.22;;
21727;SDS011;11026;50.560;17.852;2024-03-22T12:40:40;6.50;;;5.13;;
21727;SDS011;11026;50.560;17.852;2024-03-22T12:43:07;7.05;;;4.90;;
21727;SDS011;11026;50.560;17.852;2024-03-22T12:45:37;6.90;;;5.25;;
21727;SDS011;11026;50.560;17.852;2024-03-22T12:48:03;6.20;;;5.00;;
21727;SDS011;11026;50.560;17.852;2024-03-22T12:50:30;5.70;;;4.70;;
21727;SDS011;11026;50.560;17.852;2024-03-22T12:52:58;6.15;;;4.63;;
21727;SDS011;11026;50.560;17.852;2024-03-22T12:55:25;7.65;;;6.22;;
21727;SDS011;11026;50.560;17.852;2024-03-22T12:57:54;7.30;;;5.30;;
21727;SDS011;11026;50.560;17.852;2024-03-22T13:00:22;8.65;;;5.70;;
21727;SDS011;11026;50.560;17.852;2024-03-22T13:02:48;7.47;;;5.35;;
21727;SDS011;11026;50.560;17.852;2024-03-22T13:05:14;6.55;;;5.10;;
21727;SDS011;11026;50.560;17.852;2024-03-22T13:07:42;6.13;;;4.97;;
21727;SDS011;11026;50.560;17.852;2024-03-22T13:10:08;8.13;;;5.93;;
21727;SDS011;11026;50.560;17.852;2024-03-22T13:12:38;10.60;;;5.50;;
21727;SDS011;11026;50.560;17.852;2024-03-22T13:15:04;6.22;;;4.93;;
21727;SDS011;11026;50.560;17.852;2024-03-22T13:17:30;7.78;;;4.60;;
21727;SDS011;11026;50.560;17.852;2024-03-22T13:19:57;8.30;;;6.43;;
21727;SDS011;11026;50.560;17.852;2024-03-22T13:27:25;5.97;;;4.68;;
21727;SDS011;11026;50.560;17.852;2024-03-22T13:29:53;9.55;;;5.75;;
21727;SDS011;11026;50.560;17.852;2024-03-22T13:32:19;7.10;;;5.95;;
21727;SDS011;11026;50.560;17.852;2024-03-22T13:34:46;7.35;;;4.72;;
21727;SDS011;11026;50.560;17.852;2024-03-22T13:39:42;6.38;;;4.60;;
21727;SDS011;11026;50.560;17.852;2024-03-22T13:42:08;6.40;;;5.13;;
21727;SDS011;11026;50.560;17.852;2024-03-22T13:44:35;6.65;;;4.07;;
21727;SDS011;11026;50.560;17.852;2024-03-22T13:47:02;6.60;;;4.82;;
21727;SDS011;11026;50.560;17.852;2024-03-22T13:49:30;7.85;;;4.80;;
21727;SDS011;11026;50.560;17.852;2024-03-22T13:51:57;6.13;;;4.50;;
21727;SDS011;11026;50.560;17.852;2024-03-22T13:54:25;5.90;;;4.75;;
21727;SDS011;11026;50.560;17.852;2024-03-22T13:56:52;5.18;;;4.15;;
21727;SDS011;11026;50.560;17.852;2024-03-22T13:59:18;5.35;;;4.00;;
21727;SDS011;11026;50.560;17.852;2024-03-22T14:01:47;6.43;;;3.95;;
21727;SDS011;11026;50.560;17.852;2024-03-22T14:04:15;6.30;;;3.95;;
21727;SDS011;11026;50.560;17.852;2024-03-22T14:06:40;5.97;;;3.60;;
21727;SDS011;11026;50.560;17.852;2024-03-22T14:09:09;5.15;;;4.05;;
21727;SDS011;11026;50.560;17.852;2024-03-22T14:11:36;8.00;;;4.60;;
21727;SDS011;11026;50.560;17.852;2024-03-22T14:14:03;4.60;;;3.88;;
21727;SDS011;11026;50.560;17.852;2024-03-22T14:16:29;4.70;;;4.00;;
21727;SDS011;11026;50.560;17.852;2024-03-22T14:18:56;6.60;;;4.45;;
21727;SDS011;11026;50.560;17.852;2024-03-22T14:21:23;6.18;;;4.72;;
21727;SDS011;11026;50.560;17.852;2024-03-22T14:23:49;5.07;;;4.05;;
21727;SDS011;11026;50.560;17.852;2024-03-22T14:26:16;8.20;;;4.63;;
21727;SDS011;11026;50.560;17.852;2024-03-22T14:28:48;5.95;;;4.03;;
21727;SDS011;11026;50.560;17.852;2024-03-22T14:31:15;9.35;;;4.38;;
21727;SDS011;11026;50.560;17.852;2024-03-22T14:36:11;7.55;;;4.95;;
21727;SDS011;11026;50.560;17.852;2024-03-22T14:38:39;6.68;;;4.53;;
21727;SDS011;11026;50.560;17.852;2024-03-22T14:41:05;5.88;;;4.15;;
21727;SDS011;11026;50.560;17.852;2024-03-22T14:43:33;5.50;;;4.75;;
21727;SDS011;11026;50.560;17.852;2024-03-22T14:46:00;6.28;;;4.80;;
21727;SDS011;11026;50.560;17.852;2024-03-22T14:48:30;6.70;;;4.82;;
21727;SDS011;11026;50.560;17.852;2024-03-22T14:50:56;6.18;;;4.90;;
21727;SDS011;11026;50.560;17.852;2024-03-22T14:53:22;6.70;;;4.85;;
21727;SDS011;11026;50.560;17.852;2024-03-22T14:56:06;8.32;;;5.00;;
21727;SDS011;11026;50.560;17.852;2024-03-22T14:58:35;6.68;;;4.50;;
21727;SDS011;11026;50.560;17.852;2024-03-22T15:01:04;8.15;;;6.22;;
21727;SDS011;11026;50.560;17.852;2024-03-22T15:03:31;6.68;;;5.22;;
21727;SDS011;11026;50.560;17.852;2024-03-22T15:05:58;15.00;;;5.47;;
21727;SDS011;11026;50.560;17.852;2024-03-22T15:08:26;6.43;;;5.32;;
21727;SDS011;11026;50.560;17.852;2024-03-22T15:15:54;6.95;;;5.10;;
21727;SDS011;11026;50.560;17.852;2024-03-22T15:18:21;7.40;;;4.82;;
21727;SDS011;11026;50.560;17.852;2024-03-22T15:20:48;5.53;;;4.03;;
21727;SDS011;11026;50.560;17.852;2024-03-22T15:23:16;4.88;;;4.13;;
21727;SDS011;11026;50.560;17.852;2024-03-22T15:25:42;5.15;;;4.07;;
21727;SDS011;11026;50.560;17.852;2024-03-22T15:28:09;5.80;;;4.18;;
21727;SDS011;11026;50.560;17.852;2024-03-22T15:30:35;4.53;;;3.58;;
21727;SDS011;11026;50.560;17.852;2024-03-22T15:33:02;5.60;;;4.60;;
21727;SDS011;11026;50.560;17.852;2024-03-22T15:35:31;6.22;;;4.50;;
21727;SDS011;11026;50.560;17.852;2024-03-22T15:37:57;5.82;;;3.95;;